createdAt,value
2023-03-06T00:02:41.671Z,2.70
2023-03-06T00:08:40.521Z,2.60
2023-03-06T00:15:15.351Z,2.70
2023-03-06T00:21:41.148Z,2.70
2023-03-06T00:27:51.212Z,2.70
2023-03-06T00:33:50.440Z,2.60
2023-03-06T00:40:25.728Z,2.60
2023-03-06T00:46:50.751Z,2.70
2023-03-06T00:53:00.326Z,2.60
2023-03-06T00:58:59.138Z,2.60
2023-03-06T01:05:36.159Z,2.60
2023-03-06T01:12:01.303Z,2.50
2023-03-06T01:18:10.950Z,2.40
2023-03-06T01:24:09.786Z,2.30
2023-03-06T01:30:45.255Z,2.30
2023-03-06T01:37:10.284Z,2.40
2023-03-06T01:43:26.581Z,2.30
2023-03-06T01:49:38.337Z,2.30
2023-03-06T01:56:14.105Z,2.30
2023-03-06T02:02:39.664Z,2.30
2023-03-06T02:08:50.086Z,2.30
2023-03-06T02:14:49.376Z,2.30
2023-03-06T02:21:32.765Z,2.30
2023-03-06T02:27:57.811Z,2.30
2023-03-06T02:34:27.344Z,2.30
2023-03-06T02:40:26.416Z,2.20
2023-03-06T02:47:01.214Z,2.20
2023-03-06T02:53:26.365Z,2.30
2023-03-06T02:59:36.001Z,2.20
2023-03-06T03:05:34.883Z,2.00
2023-03-06T03:12:09.898Z,2.10
2023-03-06T03:18:35.117Z,2.20
2023-03-06T03:24:44.796Z,2.20
2023-03-06T03:30:43.704Z,2.10
2023-03-06T03:37:19.206Z,2.10
2023-03-06T03:43:44.227Z,2.20
2023-03-06T03:49:53.850Z,2.20
2023-03-06T03:55:52.683Z,2.10
2023-03-06T04:02:27.410Z,2.10
2023-03-06T04:08:52.580Z,2.00
2023-03-06T04:15:02.431Z,2.10
2023-03-06T04:21:01.295Z,2.10
2023-03-06T04:27:36.075Z,2.00
2023-03-06T04:34:01.091Z,2.10
2023-03-06T04:40:21.719Z,2.10
2023-03-06T04:46:20.834Z,2.00
2023-03-06T04:52:55.548Z,2.00
2023-03-06T04:59:20.607Z,2.00
2023-03-06T05:05:30.411Z,2.00
2023-03-06T05:11:29.282Z,1.90
2023-03-06T05:18:04.080Z,1.90
2023-03-06T05:24:29.183Z,2.00
2023-03-06T05:30:39.489Z,1.90
2023-03-06T05:36:38.346Z,1.80
2023-03-06T05:43:13.823Z,1.80
2023-03-06T05:49:39.197Z,1.80
2023-03-06T05:55:55.718Z,1.80
2023-03-06T06:01:58.049Z,1.70
2023-03-06T06:08:32.918Z,1.80
2023-03-06T06:14:58.212Z,1.80
2023-03-06T06:21:08.414Z,1.80
2023-03-06T06:27:07.938Z,1.80
2023-03-06T06:33:42.955Z,1.80
2023-03-06T06:40:08.428Z,1.90
2023-03-06T06:46:56.142Z,1.80
2023-03-06T06:52:37.257Z,1.80
2023-03-06T06:59:17.096Z,1.80
2023-03-06T07:05:45.743Z,1.90
2023-03-06T07:11:55.395Z,1.90
2023-03-06T07:17:54.217Z,1.90
2023-03-06T07:24:28.961Z,2.00
2023-03-06T07:30:54.745Z,2.00
2023-03-06T07:37:04.444Z,1.90
2023-03-06T07:43:18.442Z,1.90
2023-03-06T07:49:56.400Z,1.90
2023-03-06T07:56:21.499Z,1.90
2023-03-06T08:02:31.198Z,1.90
2023-03-06T08:08:30.044Z,2.20
2023-03-06T08:15:05.273Z,2.40
2023-03-06T08:21:30.339Z,2.60
2023-03-06T08:27:40.018Z,2.50
2023-03-06T08:33:39.732Z,2.50
2023-03-06T08:40:14.526Z,2.50
2023-03-06T08:46:39.554Z,2.50
2023-03-06T08:52:49.140Z,2.50
2023-03-06T08:58:48.734Z,2.30
2023-03-06T09:05:23.525Z,2.40
2023-03-06T09:11:48.607Z,2.40
2023-03-06T09:17:58.283Z,2.20
2023-03-06T09:23:57.209Z,2.30
2023-03-06T09:30:31.956Z,2.20
2023-03-06T09:36:57.713Z,2.30
2023-03-06T09:43:11.320Z,2.30
2023-03-06T09:49:30.172Z,2.30
2023-03-06T09:56:23.894Z,2.20
2023-03-06T10:03:07.570Z,2.10
2023-03-06T10:09:24.199Z,2.20
2023-03-06T10:15:28.762Z,2.20
2023-03-06T10:22:25.780Z,2.20
2023-03-06T10:29:06.501Z,2.20
2023-03-06T10:35:18.657Z,2.10
2023-03-06T10:41:35.193Z,2.20
2023-03-06T10:48:14.640Z,2.20
2023-03-06T10:54:40.777Z,2.40
2023-03-06T11:01:04.917Z,2.40
2023-03-06T11:07:23.958Z,2.10
2023-03-06T11:13:59.400Z,2.00
2023-03-06T11:20:26.754Z,1.90
2023-03-06T11:26:51.356Z,2.00
2023-03-06T11:33:01.348Z,1.90
2023-03-06T11:39:44.339Z,1.90
2023-03-06T11:46:21.476Z,2.10
2023-03-06T11:52:43.857Z,2.00
2023-03-06T11:59:04.484Z,1.90
2023-03-06T12:05:50.971Z,2.20
2023-03-06T12:12:30.642Z,2.60
2023-03-06T12:18:43.239Z,2.60
2023-03-06T12:25:00.306Z,2.90
2023-03-06T12:31:56.217Z,3.10
2023-03-06T12:38:40.214Z,3.10
2023-03-06T12:45:04.798Z,3.00
2023-03-06T12:51:07.444Z,2.60
2023-03-06T12:57:42.200Z,2.70
2023-03-06T13:04:25.322Z,2.60
2023-03-06T13:10:35.947Z,2.70
2023-03-06T13:16:35.072Z,2.70
2023-03-06T13:23:41.005Z,2.60
2023-03-06T13:30:19.745Z,2.60
2023-03-06T13:36:30.680Z,2.20
2023-03-06T13:42:36.090Z,2.00
2023-03-06T13:49:10.764Z,2.00
2023-03-06T13:55:42.548Z,2.00
2023-03-06T14:01:52.100Z,2.40
2023-03-06T14:08:13.662Z,2.30
2023-03-06T14:14:56.488Z,2.40
2023-03-06T14:21:27.526Z,2.40
2023-03-06T14:27:47.453Z,2.10
2023-03-06T14:33:51.484Z,2.10
2023-03-06T14:40:42.861Z,2.10
2023-03-06T14:47:17.912Z,2.20
2023-03-06T14:53:29.037Z,2.10
2023-03-06T14:59:30.515Z,1.90
2023-03-06T15:06:06.218Z,2.20
2023-03-06T15:12:33.936Z,2.20
2023-03-06T15:18:54.572Z,2.20
2023-03-06T15:24:54.371Z,2.20
2023-03-06T15:31:31.791Z,2.30
2023-03-06T15:37:57.286Z,2.40
2023-03-06T15:44:13.848Z,2.30
2023-03-06T15:50:20.145Z,2.40
2023-03-06T15:56:54.920Z,2.50
2023-03-06T16:03:20.140Z,2.50
2023-03-06T16:09:29.720Z,2.50
2023-03-06T16:15:30.377Z,2.40
2023-03-06T16:22:05.923Z,2.40
2023-03-06T16:28:31.639Z,2.40
2023-03-06T16:34:41.208Z,2.30
2023-03-06T16:40:41.411Z,2.20
2023-03-06T16:47:17.169Z,2.30
2023-03-06T16:53:43.087Z,2.30
2023-03-06T16:59:52.672Z,2.20
2023-03-06T17:05:51.597Z,2.10
2023-03-06T17:12:26.363Z,2.10
2023-03-06T17:18:51.493Z,2.10
2023-03-06T17:25:01.680Z,2.10
2023-03-06T17:31:02.075Z,2.10
2023-03-06T17:37:37.140Z,2.10
2023-03-06T17:44:02.321Z,2.10
2023-03-06T17:50:12.036Z,2.20
2023-03-06T17:56:13.471Z,2.10
2023-03-06T18:02:48.297Z,2.10
2023-03-06T18:09:13.339Z,2.20
2023-03-06T18:15:22.990Z,2.10
2023-03-06T18:21:23.278Z,2.00
2023-03-06T18:27:58.992Z,2.10
2023-03-06T18:34:24.008Z,2.10
2023-03-06T18:40:33.809Z,2.40
2023-03-06T18:46:35.820Z,2.20
2023-03-06T18:53:10.641Z,2.10
2023-03-06T18:59:35.661Z,2.10
2023-03-06T19:05:46.268Z,2.10
2023-03-06T19:11:46.860Z,2.00
2023-03-06T19:18:21.560Z,2.10
2023-03-06T19:26:23.658Z,2.10
2023-03-06T19:32:33.421Z,2.10
2023-03-06T19:38:32.713Z,2.10
2023-03-06T19:45:08.414Z,2.20
2023-03-06T19:51:33.600Z,2.20
2023-03-06T19:57:43.501Z,2.10
2023-03-06T20:03:42.812Z,2.00
2023-03-06T20:10:18.165Z,2.00
2023-03-06T20:16:43.216Z,1.90
2023-03-06T20:22:52.891Z,1.70
2023-03-06T20:28:51.831Z,2.00
2023-03-06T20:35:27.452Z,2.00
2023-03-06T20:41:52.559Z,2.30
2023-03-06T20:48:02.638Z,1.90
2023-03-06T20:54:02.100Z,1.70
2023-03-06T21:00:36.951Z,1.80
2023-03-06T21:07:00.513Z,1.90
2023-03-06T21:13:10.170Z,1.90
2023-03-06T21:19:10.101Z,1.90
2023-03-06T21:25:49.616Z,1.90
2023-03-06T21:32:14.697Z,2.00
2023-03-06T21:38:24.488Z,1.90
2023-03-06T21:44:23.379Z,1.90
2023-03-06T21:51:09.880Z,1.90
2023-03-06T21:57:35.029Z,2.10
2023-03-06T22:03:44.696Z,1.80
2023-03-06T22:09:43.582Z,2.10
2023-03-06T22:16:20.751Z,2.10
2023-03-06T22:22:46.075Z,2.10
2023-03-06T22:28:55.967Z,2.10
2023-03-06T22:34:54.850Z,2.10
2023-03-06T22:41:31.246Z,2.20
2023-03-06T22:48:05.542Z,2.20
2023-03-06T22:54:19.812Z,2.10
2023-03-06T23:00:19.121Z,2.20
2023-03-06T23:06:53.835Z,2.20
2023-03-06T23:13:18.874Z,2.20
2023-03-06T23:19:28.458Z,2.10
2023-03-06T23:25:27.398Z,2.20
2023-03-06T23:32:02.263Z,2.20
2023-03-06T23:38:28.652Z,2.20
2023-03-06T23:44:38.277Z,2.10
2023-03-06T23:50:39.682Z,2.00
2023-03-06T23:57:14.422Z,1.90
